Time;durP1;ratioP1;P1;durP2;ratioP2;P2;SDS_P1;SDS_P2;PMS_P1;PMS_P2;Temp;Humidity;BMP_temperature;BMP_pressure;BME280_temperature;BME280_humidity;BME280_pressure;Samples;Min_cycle;Max_cycle;Signal;HPM_P1;HPM_P2
2021/12/23 00:01:22;;;;;;;58.90;25.10;;;-3.30;99.90;;;;;;4347419;33;20200;-68
2021/12/23 00:03:49;;;;;;;64.17;25.33;;;-3.40;99.90;;;;;;4349069;33;20196;-68
2021/12/23 00:06:16;;;;;;;61.07;25.27;;;-3.40;99.90;;;;;;4348250;33;20172;-68
2021/12/23 00:08:44;;;;;;;57.07;25.57;;;-3.40;99.90;;;;;;4347445;33;20207;-68
2021/12/23 00:11:11;;;;;;;64.33;25.57;;;-3.50;99.90;;;;;;4348093;33;20232;-68
2021/12/23 00:13:48;;;;;;;68.10;26.77;;;-3.50;99.90;;;;;;4346574;33;20308;-68
2021/12/23 00:16:29;;;;;;;69.43;25.93;;;-3.60;99.90;;;;;;4349505;33;20408;-69
2021/12/23 00:19:14;;;;;;;66.53;25.93;;;-3.60;99.90;;;;;;4349297;33;20219;-68
2021/12/23 00:24:28;;;;;;;58.73;24.03;;;-3.50;99.90;;;;;;4352384;32;20216;-68
2021/12/23 00:26:56;;;;;;;58.67;23.57;;;-3.50;99.90;;;;;;4350457;32;20446;-69
2021/12/23 00:29:23;;;;;;;58.17;24.47;;;-3.40;99.90;;;;;;4350000;33;20196;-68
2021/12/23 00:31:51;;;;;;;61.03;25.33;;;-3.40;99.90;;;;;;4349676;33;20231;-68
2021/12/23 00:34:19;;;;;;;57.70;24.93;;;-3.40;99.90;;;;;;4350404;33;20176;-68
2021/12/23 00:36:47;;;;;;;64.13;25.50;;;-3.30;99.90;;;;;;4351040;32;20184;-68
2021/12/23 00:39:15;;;;;;;59.23;23.90;;;-3.30;99.90;;;;;;4349778;33;20216;-68
2021/12/23 00:41:44;;;;;;;63.03;24.67;;;-3.30;99.90;;;;;;4349851;33;20297;-68
2021/12/23 00:44:13;;;;;;;56.77;24.77;;;-3.30;99.90;;;;;;4350311;32;20227;-68
2021/12/23 00:46:40;;;;;;;58.43;24.20;;;-3.30;99.90;;;;;;4349434;33;20184;-68
2021/12/23 00:49:08;;;;;;;55.70;23.67;;;-3.20;99.90;;;;;;4349350;33;20192;-68
2021/12/23 00:51:39;;;;;;;55.87;23.63;;;-3.30;99.90;;;;;;4348950;33;20475;-68
2021/12/23 00:54:07;;;;;;;48.10;20.67;;;-3.30;99.90;;;;;;4350309;33;20179;-68
2021/12/23 00:56:37;;;;;;;58.10;22.87;;;-3.30;99.90;;;;;;4349918;33;20445;-68
2021/12/23 00:59:08;;;;;;;58.00;22.60;;;-3.30;99.90;;;;;;4349349;33;20224;-68
2021/12/23 01:01:38;;;;;;;56.97;22.80;;;-3.30;99.90;;;;;;4349209;33;20404;-68
2021/12/23 01:04:06;;;;;;;56.67;23.17;;;-3.30;99.90;;;;;;4349594;33;20188;-68
2021/12/23 01:06:33;;;;;;;57.50;22.90;;;-3.40;99.90;;;;;;4348728;33;20242;-68
2021/12/23 01:09:01;;;;;;;52.20;21.17;;;-3.40;99.90;;;;;;4348998;33;20260;-68
2021/12/23 01:11:29;;;;;;;51.57;21.27;;;-3.40;99.90;;;;;;4351044;32;20140;-68
2021/12/23 01:14:42;;;;;;;57.20;22.40;;;-3.40;99.90;;;;;;4349430;33;20191;-68
2021/12/23 01:19:26;;;;;;;54.97;22.33;;;-3.30;99.90;;;;;;4351485;32;20195;-68
2021/12/23 01:21:54;;;;;;;55.40;21.83;;;-3.30;99.90;;;;;;4351087;33;20184;-68
2021/12/23 01:24:29;;;;;;;55.57;22.37;;;-3.30;99.90;;;;;;4348810;33;20201;-68
2021/12/23 01:26:56;;;;;;;54.20;22.03;;;-3.30;99.90;;;;;;4349202;33;20198;-68
2021/12/23 01:29:24;;;;;;;50.43;21.77;;;-3.30;99.90;;;;;;4348555;33;20260;-68
2021/12/23 01:31:51;;;;;;;51.00;21.23;;;-3.40;99.90;;;;;;4348830;33;20173;-68
2021/12/23 01:34:19;;;;;;;53.03;22.33;;;-3.30;99.90;;;;;;4348373;33;20207;-68
2021/12/23 01:36:46;;;;;;;53.67;21.87;;;-3.30;99.90;;;;;;4349349;33;20171;-68
2021/12/23 01:39:14;;;;;;;54.20;21.20;;;-3.30;99.90;;;;;;4349102;33;20235;-68
2021/12/23 01:41:41;;;;;;;55.10;21.60;;;-3.30;99.90;;;;;;4349745;33;20188;-68
2021/12/23 01:44:12;;;;;;;53.73;21.70;;;-3.40;99.90;;;;;;4349579;33;20235;-68
2021/12/23 01:46:39;;;;;;;57.83;22.00;;;-3.30;99.90;;;;;;4351223;32;20162;-68
2021/12/23 01:49:07;;;;;;;54.57;21.93;;;-3.30;99.90;;;;;;4349920;33;20214;-68
2021/12/23 01:51:36;;;;;;;52.17;20.73;;;-3.30;99.90;;;;;;4348172;33;20259;-68
2021/12/23 01:54:04;;;;;;;53.47;22.63;;;-3.30;99.90;;;;;;4349003;33;20561;-68
2021/12/23 01:56:32;;;;;;;50.00;20.30;;;-3.30;99.90;;;;;;4349240;33;20192;-68
2021/12/23 01:58:59;;;;;;;57.03;22.10;;;-3.40;99.90;;;;;;4348065;33;20176;-67
2021/12/23 02:01:27;;;;;;;51.00;21.47;;;-3.40;99.90;;;;;;4348441;33;20172;-68
2021/12/23 02:03:55;;;;;;;52.53;22.80;;;-3.50;99.90;;;;;;4347650;33;20239;-68
2021/12/23 02:06:22;;;;;;;54.23;22.80;;;-3.50;99.90;;;;;;4348426;33;20205;-68
2021/12/23 02:08:55;;;;;;;55.60;22.50;;;-3.50;99.90;;;;;;4348825;33;20201;-68
2021/12/23 02:11:23;;;;;;;50.97;21.73;;;-3.60;99.90;;;;;;4349969;33;20187;-67
2021/12/23 02:13:51;;;;;;;57.43;22.40;;;-3.50;99.90;;;;;;4348463;33;20207;-68
2021/12/23 02:16:18;;;;;;;54.50;21.97;;;-3.50;99.90;;;;;;4349645;33;20167;-68
2021/12/23 02:18:45;;;;;;;59.40;23.00;;;-3.60;99.90;;;;;;4349248;33;20191;-67
2021/12/23 02:21:13;;;;;;;54.20;21.47;;;-3.60;99.90;;;;;;4347978;33;20228;-68
2021/12/23 02:23:41;;;;;;;49.60;20.50;;;-3.60;99.90;;;;;;4348118;33;20456;-67
2021/12/23 02:26:08;;;;;;;53.57;21.57;;;-3.60;99.90;;;;;;4348362;33;20211;-68
2021/12/23 02:28:35;;;;;;;53.47;20.60;;;-3.60;99.90;;;;;;4348519;33;20192;-68
2021/12/23 02:31:03;;;;;;;48.03;21.20;;;-3.70;99.90;;;;;;4349657;32;20152;-68
2021/12/23 02:33:30;;;;;;;47.67;20.13;;;-3.70;99.90;;;;;;4348228;33;20179;-68
2021/12/23 02:35:59;;;;;;;48.27;20.27;;;-3.70;99.90;;;;;;4347459;33;20490;-68
2021/12/23 02:38:27;;;;;;;48.00;20.37;;;-3.70;99.90;;;;;;4348568;33;20165;-68
2021/12/23 02:40:54;;;;;;;46.07;19.83;;;-3.60;99.90;;;;;;4348951;32;20568;-68
2021/12/23 02:43:27;;;;;;;47.43;20.40;;;-3.60;99.90;;;;;;4348362;33;20240;-68
2021/12/23 02:45:57;;;;;;;50.87;20.10;;;-3.60;99.90;;;;;;4347473;33;20249;-68
2021/12/23 02:48:34;;;;;;;48.77;20.87;;;-3.70;99.90;;;;;;4347841;33;20239;-68
2021/12/23 02:51:07;;;;;;;46.77;18.93;;;-3.70;99.90;;;;;;4348524;33;20192;-69
2021/12/23 02:53:35;;;;;;;47.63;19.60;;;-3.70;99.90;;;;;;4348102;33;20618;-68
2021/12/23 02:56:06;;;;;;;47.67;19.37;;;-3.70;99.90;;;;;;4348279;33;20233;-68
2021/12/23 02:58:34;;;;;;;45.23;19.70;;;-3.70;99.90;;;;;;4348921;33;20144;-67
2021/12/23 03:01:06;;;;;;;45.17;19.40;;;-3.80;99.90;;;;;;4347815;33;20262;-68
2021/12/23 03:03:35;;;;;;;47.77;19.17;;;-3.80;99.90;;;;;;4349640;33;20184;-68
2021/12/23 03:06:03;;;;;;;42.37;18.80;;;-3.80;99.90;;;;;;4348746;33;20221;-68
2021/12/23 03:08:36;;;;;;;50.10;20.10;;;-3.80;99.90;;;;;;4349183;33;20167;-68
2021/12/23 03:11:08;;;;;;;48.07;19.63;;;-3.80;99.90;;;;;;4347755;33;20203;-68
2021/12/23 03:13:37;;;;;;;48.80;18.73;;;-3.80;99.90;;;;;;4348360;33;20188;-68
2021/12/23 03:16:08;;;;;;;45.93;18.23;;;-3.80;99.90;;;;;;4348848;33;20205;-68
2021/12/23 03:18:40;;;;;;;45.50;18.10;;;-3.80;99.90;;;;;;4347309;33;20172;-68
2021/12/23 03:21:14;;;;;;;43.50;17.70;;;-3.70;99.90;;;;;;4347483;33;20172;-68
2021/12/23 03:23:47;;;;;;;43.83;18.17;;;-3.70;99.90;;;;;;4348391;33;20465;-68
2021/12/23 03:26:15;;;;;;;44.33;18.20;;;-3.70;99.90;;;;;;4348220;33;20183;-68
2021/12/23 03:29:07;;;;;;;49.50;18.30;;;-3.70;99.90;;;;;;4347721;33;20180;-68
2021/12/23 03:31:37;;;;;;;44.50;17.80;;;-3.70;99.90;;;;;;4348591;33;20141;-68
2021/12/23 03:34:05;;;;;;;45.97;17.97;;;-3.70;99.90;;;;;;4347529;33;20262;-68
2021/12/23 03:36:34;;;;;;;40.87;17.53;;;-3.70;99.90;;;;;;4347573;33;20243;-68
2021/12/23 03:39:06;;;;;;;42.30;18.00;;;-3.80;99.90;;;;;;4348628;33;20192;-68
2021/12/23 03:41:35;;;;;;;43.63;17.57;;;-3.80;99.90;;;;;;4347346;33;20219;-68
2021/12/23 03:44:06;;;;;;;45.43;19.20;;;-3.80;99.90;;;;;;4348017;33;20251;-68
2021/12/23 03:46:37;;;;;;;41.17;17.63;;;-3.80;99.90;;;;;;4348604;33;20160;-68
2021/12/23 03:49:06;;;;;;;45.07;18.73;;;-3.90;99.90;;;;;;4347416;33;20254;-68
2021/12/23 03:51:34;;;;;;;43.97;18.87;;;-3.90;99.90;;;;;;4349813;33;20211;-68
2021/12/23 03:54:02;;;;;;;45.03;18.37;;;-3.90;99.90;;;;;;4350061;33;20235;-68
2021/12/23 03:56:33;;;;;;;46.57;19.63;;;-3.90;99.90;;;;;;4352336;32;20172;-68
2021/12/23 03:59:00;;;;;;;47.53;18.40;;;-4.00;99.90;;;;;;4351067;33;20212;-68
2021/12/23 04:01:29;;;;;;;44.43;18.23;;;-4.00;99.90;;;;;;4350453;33;20238;-68
2021/12/23 04:03:57;;;;;;;43.27;18.57;;;-4.00;99.90;;;;;;4351205;33;20168;-68
2021/12/23 04:06:28;;;;;;;40.80;17.03;;;-4.00;99.90;;;;;;4350160;33;20219;-68
2021/12/23 04:08:56;;;;;;;43.07;18.17;;;-4.00;99.90;;;;;;4350192;33;20247;-68
2021/12/23 04:11:24;;;;;;;45.03;17.80;;;-4.00;99.90;;;;;;4351947;33;20144;-68
2021/12/23 04:13:53;;;;;;;45.30;18.33;;;-4.10;99.90;;;;;;4350528;33;20180;-68
2021/12/23 04:16:21;;;;;;;42.20;17.33;;;-4.10;99.90;;;;;;4350087;33;20240;-68
2021/12/23 04:18:50;;;;;;;44.70;17.53;;;-4.00;99.90;;;;;;4350154;33;20184;-68
2021/12/23 04:21:18;;;;;;;41.43;17.73;;;-4.00;99.90;;;;;;4351482;33;20225;-68
2021/12/23 04:23:46;;;;;;;44.10;17.87;;;-4.00;99.90;;;;;;4350757;32;20188;-68
2021/12/23 04:26:14;;;;;;;41.87;16.97;;;-4.10;99.90;;;;;;4350938;33;20188;-68
2021/12/23 04:28:46;;;;;;;39.03;17.37;;;-4.00;99.90;;;;;;4349541;33;20246;-68
2021/12/23 04:31:18;;;;;;;39.90;17.47;;;-4.00;99.90;;;;;;4351065;33;20145;-68
2021/12/23 04:33:50;;;;;;;37.10;16.97;;;-4.00;99.90;;;;;;4349858;33;20255;-67
2021/12/23 04:36:21;;;;;;;39.13;16.60;;;-4.00;99.90;;;;;;4349873;32;20233;-68
2021/12/23 04:38:49;;;;;;;42.27;17.83;;;-4.00;99.90;;;;;;4350318;33;20246;-68
2021/12/23 04:41:22;;;;;;;39.57;17.80;;;-4.00;99.90;;;;;;4350627;33;20188;-67
2021/12/23 04:43:50;;;;;;;44.93;17.20;;;-3.90;99.90;;;;;;4350398;32;20186;-67
2021/12/23 04:46:27;;;;;;;43.10;17.30;;;-3.90;99.90;;;;;;4319876;33;20189;-68
2021/12/23 04:49:10;;;;;;;41.57;17.93;;;-3.90;99.90;;;;;;4320729;33;20431;-68
2021/12/23 04:51:40;;;;;;;43.67;18.17;;;-3.90;99.90;;;;;;4321070;33;20208;-68
2021/12/23 04:54:08;;;;;;;39.17;16.53;;;-3.90;99.90;;;;;;4332582;33;20185;-68
2021/12/23 04:56:44;;;;;;;46.03;18.13;;;-3.90;99.90;;;;;;4321758;33;20211;-68
2021/12/23 04:59:15;;;;;;;42.57;17.83;;;-3.90;99.90;;;;;;4332693;33;20170;-68
2021/12/23 05:01:50;;;;;;;41.80;17.23;;;-3.90;99.90;;;;;;4319289;33;20231;-68
2021/12/23 05:04:29;;;;;;;44.23;18.07;;;-4.00;99.90;;;;;;4332385;33;20192;-68
2021/12/23 05:07:04;;;;;;;44.20;17.60;;;-4.00;99.90;;;;;;4332460;33;20216;-68
2021/12/23 05:09:32;;;;;;;44.50;18.73;;;-4.00;99.90;;;;;;4331986;33;20237;-68
2021/12/23 05:11:59;;;;;;;45.37;18.07;;;-4.00;99.90;;;;;;4332093;33;20240;-68
2021/12/23 05:14:33;;;;;;;43.00;18.47;;;-4.00;99.90;;;;;;4320326;33;20487;-68
2021/12/23 05:17:06;;;;;;;41.77;17.87;;;-4.00;99.90;;;;;;4331607;33;20242;-68
2021/12/23 05:19:39;;;;;;;43.33;18.17;;;-4.00;99.90;;;;;;4332791;33;20206;-68
2021/12/23 05:22:07;;;;;;;46.23;17.93;;;-4.00;99.90;;;;;;4332281;33;20195;-68
2021/12/23 05:24:42;;;;;;;48.67;18.90;;;-4.00;99.90;;;;;;4321206;33;20137;-68
2021/12/23 05:27:10;;;;;;;47.03;19.57;;;-4.00;99.90;;;;;;4331642;33;20181;-68
2021/12/23 05:29:41;;;;;;;45.53;19.30;;;-4.00;99.90;;;;;;4331841;33;20177;-68
2021/12/23 05:32:15;;;;;;;44.60;18.90;;;-3.90;99.90;;;;;;4321568;33;20223;-68
2021/12/23 05:34:49;;;;;;;41.73;19.07;;;-3.90;99.90;;;;;;4330860;33;20542;-68
2021/12/23 05:37:20;;;;;;;43.73;18.27;;;-3.90;99.90;;;;;;4331107;33;20217;-67
2021/12/23 05:39:48;;;;;;;44.73;18.43;;;-3.90;99.90;;;;;;4331078;33;20211;-68
2021/12/23 05:42:15;;;;;;;42.97;18.53;;;-3.90;99.90;;;;;;4332472;33;20241;-67
2021/12/23 05:44:43;;;;;;;42.27;17.57;;;-4.00;99.90;;;;;;4339018;33;20237;-68
2021/12/23 05:47:16;;;;;;;43.53;18.20;;;-4.00;99.90;;;;;;4349385;33;20184;-68
2021/12/23 05:49:47;;;;;;;41.20;18.00;;;-4.00;99.90;;;;;;4348896;33;20254;-68
2021/12/23 05:52:17;;;;;;;44.40;18.17;;;-3.90;99.90;;;;;;4349566;32;20137;-68
2021/12/23 05:55:18;;;;;;;45.83;17.83;;;-3.90;99.90;;;;;;4347727;32;20200;-68
2021/12/23 05:57:46;;;;;;;43.40;17.17;;;-3.90;99.90;;;;;;4349717;33;20477;-68
2021/12/23 06:00:15;;;;;;;40.57;17.13;;;-3.90;99.90;;;;;;4347954;33;20208;-68
2021/12/23 06:02:50;;;;;;;44.13;18.47;;;-3.90;99.90;;;;;;4349738;33;20234;-68
2021/12/23 06:05:18;;;;;;;43.30;17.63;;;-4.00;99.90;;;;;;4348856;33;20238;-68
2021/12/23 06:07:46;;;;;;;42.63;17.80;;;-4.00;99.90;;;;;;4347789;33;20223;-68
2021/12/23 06:10:18;;;;;;;43.23;17.07;;;-4.00;99.90;;;;;;4349143;32;20169;-68
2021/12/23 06:13:12;;;;;;;43.00;16.87;;;-3.90;99.90;;;;;;4348502;33;20234;-68
2021/12/23 06:16:07;;;;;;;42.17;17.13;;;-4.00;99.90;;;;;;4349245;32;20172;-68
2021/12/23 06:18:41;;;;;;;44.70;18.43;;;-4.00;99.90;;;;;;4347823;33;20238;-68
2021/12/23 06:21:16;;;;;;;40.53;18.00;;;-4.00;99.90;;;;;;4347817;33;20192;-68
2021/12/23 06:24:04;;;;;;;45.63;18.30;;;-3.90;99.90;;;;;;4347530;33;20406;-68
2021/12/23 06:30:02;;;;;;;40.07;17.47;;;-3.90;99.90;;;;;;4329374;33;20184;-68
2021/12/23 06:32:57;;;;;;;44.43;17.10;;;-3.90;99.90;;;;;;4331960;33;20255;-68
2021/12/23 06:35:34;;;;;;;43.23;17.87;;;-3.90;99.90;;;;;;4331512;33;20177;-68
2021/12/23 06:38:38;;;;;;;44.70;17.10;;;-3.90;99.90;;;;;;4320160;33;20208;-67
2021/12/23 06:41:23;;;;;;;43.27;17.63;;;-4.00;99.90;;;;;;4330714;33;20189;-68
2021/12/23 06:44:16;;;;;;;45.23;17.57;;;-3.90;99.90;;;;;;4331425;33;20241;-68
2021/12/23 06:48:00;;;;;;;38.53;17.47;;;-4.00;99.90;;;;;;4289141;33;20173;-67
2021/12/23 06:50:45;;;;;;;40.30;16.47;;;-3.90;99.90;;;;;;4313820;33;20161;-68
2021/12/23 06:54:12;;;;;;;44.60;17.17;;;-3.90;99.90;;;;;;4317344;33;20218;-68
2021/12/23 06:57:52;;;;;;;46.43;17.77;;;-3.90;99.90;;;;;;4270424;33;20185;-68
2021/12/23 07:00:45;;;;;;;37.43;16.70;;;-3.90;99.90;;;;;;4289315;33;20311;-68
2021/12/23 07:11:25;;;;;;;43.03;17.80;;;-3.80;99.90;;;;;;4274888;33;20194;-68
2021/12/23 07:14:20;;;;;;;39.03;16.67;;;-3.70;99.90;;;;;;4273454;33;20445;-68
2021/12/23 07:16:57;;;;;;;45.93;17.70;;;-3.70;99.90;;;;;;4274406;33;20152;-68
2021/12/23 07:20:28;;;;;;;35.83;16.57;;;-3.60;99.90;;;;;;4214484;34;20220;-69
2021/12/23 07:23:48;;;;;;;42.73;17.13;;;-3.60;99.90;;;;;;4226037;33;20184;-68
2021/12/23 07:26:35;;;;;;;41.33;17.77;;;-3.50;99.90;;;;;;4208479;34;20175;-68
2021/12/23 07:29:48;;;;;;;40.43;17.00;;;-3.50;99.90;;;;;;4222416;34;20237;-68
2021/12/23 07:32:32;;;;;;;44.87;18.37;;;-3.50;99.90;;;;;;4234471;33;20159;-68
2021/12/23 07:35:09;;;;;;;39.67;17.40;;;-3.50;99.90;;;;;;4233507;33;20222;-68
2021/12/23 07:42:14;;;;;;;37.93;16.47;;;-3.50;99.90;;;;;;4219362;34;20237;-68
2021/12/23 07:46:02;;;;;;;38.80;17.37;;;-3.50;99.90;;;;;;4192546;34;20194;-68
2021/12/23 07:49:25;;;;;;;39.00;16.97;;;-3.40;99.90;;;;;;4210634;34;20535;-68
2021/12/23 07:52:24;;;;;;;44.07;17.10;;;-3.30;99.90;;;;;;4213372;34;20196;-68
2021/12/23 07:59:20;;;;;;;;;;;;;;;;;;;;;
2021/12/23 08:02:34;;;;;;;41.47;16.53;;;-3.50;99.90;;;;;;4178820;34;20171;-68
2021/12/23 08:06:11;;;;;;;38.00;16.83;;;-3.40;99.90;;;;;;4169039;34;20183;-68
2021/12/23 08:21:47;;;;;;;41.70;17.37;;;-3.20;99.90;;;;;;5214470;27;20206;-68
2021/12/23 08:24:26;;;;;;;40.50;17.10;;;-3.20;99.90;;;;;;5209018;27;20214;-68
2021/12/23 08:27:06;;;;;;;42.40;16.90;;;-3.20;99.90;;;;;;5207593;27;20157;-68
2021/12/23 08:29:37;;;;;;;41.73;17.47;;;-3.20;99.90;;;;;;5209721;27;20142;-68
2021/12/23 08:32:10;;;;;;;39.53;17.37;;;-3.10;99.90;;;;;;5208207;27;20191;-68
2021/12/23 08:35:25;;;;;;;41.37;17.27;;;-3.10;99.90;;;;;;5202015;27;20150;-68
2021/12/23 08:37:53;;;;;;;45.33;17.93;;;-3.00;99.90;;;;;;5205608;27;20355;-68
2021/12/23 08:40:23;;;;;;;41.40;16.73;;;-2.90;99.90;;;;;;5227295;27;20324;-68
2021/12/23 08:42:58;;;;;;;41.53;17.50;;;-2.90;99.90;;;;;;5207908;27;20154;-68
2021/12/23 08:45:30;;;;;;;40.73;17.73;;;-2.80;99.90;;;;;;5207786;27;20186;-68
2021/12/23 08:48:00;;;;;;;40.10;17.57;;;-2.80;99.90;;;;;;5229004;27;20444;-68
2021/12/23 08:50:31;;;;;;;40.80;17.23;;;-3.00;99.90;;;;;;5207247;27;20230;-69
2021/12/23 08:52:59;;;;;;;49.63;18.33;;;-2.90;99.90;;;;;;5208599;27;20214;-68
2021/12/23 08:55:28;;;;;;;40.90;17.50;;;-2.90;99.90;;;;;;5208030;27;20187;-68
2021/12/23 08:57:56;;;;;;;40.30;17.33;;;-3.00;99.90;;;;;;5190114;27;20170;-68
2021/12/23 09:00:26;;;;;;;40.63;17.33;;;-2.90;99.90;;;;;;5209866;27;20193;-68
2021/12/23 09:02:53;;;;;;;39.23;16.90;;;-2.80;99.90;;;;;;5207995;27;20512;-68
2021/12/23 09:05:22;;;;;;;39.00;17.77;;;-2.80;99.90;;;;;;5208479;27;20200;-68
2021/12/23 09:07:52;;;;;;;42.27;17.53;;;-2.70;99.90;;;;;;5207256;27;20175;-68
2021/12/23 09:10:26;;;;;;;47.77;18.13;;;-2.80;99.90;;;;;;5207358;27;20195;-68
2021/12/23 09:12:56;;;;;;;43.97;17.00;;;-2.70;99.90;;;;;;5208740;27;20162;-68
2021/12/23 09:15:27;;;;;;;37.13;17.30;;;-2.70;99.90;;;;;;5209341;27;20197;-68
2021/12/23 09:17:56;;;;;;;42.80;18.87;;;-2.70;99.90;;;;;;5227098;27;20448;-68
2021/12/23 09:20:25;;;;;;;43.23;17.47;;;-2.70;99.90;;;;;;5221622;27;20139;-68
2021/12/23 09:22:58;;;;;;;48.53;18.70;;;-2.70;99.90;;;;;;5221714;27;20140;-68
2021/12/23 09:25:33;;;;;;;43.63;18.23;;;-2.60;99.90;;;;;;5202632;27;20153;-68
2021/12/23 09:34:41;;;;;;;41.13;18.20;;;-2.40;99.90;;;;;;5202425;27;20205;-69
2021/12/23 09:37:10;;;;;;;43.53;17.87;;;-2.30;99.90;;;;;;5222765;27;20138;-68
2021/12/23 09:40:01;;;;;;;43.17;18.07;;;-2.20;99.90;;;;;;5203716;27;20158;-68
2021/12/23 09:42:48;;;;;;;43.17;18.43;;;-2.20;99.90;;;;;;5203755;27;20181;-68
2021/12/23 09:45:23;;;;;;;38.03;17.60;;;-2.00;99.90;;;;;;5202597;27;20149;-68
2021/12/23 09:48:01;;;;;;;41.30;17.90;;;-2.00;99.90;;;;;;5222630;27;20134;-68
2021/12/23 09:50:45;;;;;;;37.53;18.13;;;-1.90;99.90;;;;;;5181383;27;20151;-68
2021/12/23 09:53:21;;;;;;;41.43;17.97;;;-1.80;99.90;;;;;;5199838;27;20111;-68
2021/12/23 09:55:50;;;;;;;36.27;17.87;;;-1.80;99.90;;;;;;5198842;27;20152;-69
2021/12/23 09:58:19;;;;;;;38.50;17.67;;;-1.80;99.90;;;;;;5181018;27;20158;-68
2021/12/23 10:00:47;;;;;;;40.47;17.93;;;-1.90;99.90;;;;;;5181473;27;20180;-68
2021/12/23 10:03:50;;;;;;;42.30;17.87;;;-2.00;99.90;;;;;;5181808;27;20198;-68
2021/12/23 10:40:30;;;;;;;41.70;18.07;;;-1.40;99.90;;;;;;4932968;29;20709;-68
2021/12/23 10:47:18;;;;;;;;;;;;;;;;;;;;;
2021/12/23 10:50:55;;;;;;;45.73;18.13;;;-1.10;99.90;;;;;;4919791;29;20155;-68
2021/12/23 10:58:00;;;;;;;39.93;18.20;;;-1.10;99.90;;;;;;4917819;29;20155;-68
2021/12/23 10:58:27;;;;;;;;;;;;;;;;;;;;;
2021/12/23 11:43:53;;;;;;;38.70;17.27;;;-0.60;99.90;;;;;;5022840;28;20165;-68
2021/12/23 11:46:35;;;;;;;38.27;16.90;;;-0.60;99.90;;;;;;5008118;28;20164;-69
2021/12/23 11:49:08;;;;;;;36.63;16.87;;;-0.60;99.90;;;;;;5006490;28;20192;-68
2021/12/23 11:54:15;;;;;;;35.43;16.30;;;-0.50;99.90;;;;;;5023197;28;20301;-68
2021/12/23 11:56:50;;;;;;;38.90;17.10;;;-0.40;99.90;;;;;;5022828;28;20396;-68
2021/12/23 11:59:19;;;;;;;35.47;17.60;;;-0.50;99.90;;;;;;5008290;28;20224;-68
2021/12/23 12:02:00;;;;;;;36.13;15.80;;;-0.50;99.90;;;;;;5003174;28;20157;-68
2021/12/23 12:04:43;;;;;;;38.13;16.97;;;-0.50;99.90;;;;;;5106242;28;20148;-68
2021/12/23 12:07:20;;;;;;;39.13;17.47;;;-0.70;99.90;;;;;;5128938;28;20178;-68
2021/12/23 12:09:58;;;;;;;40.23;17.90;;;-0.60;99.90;;;;;;5124228;28;20136;-68
2021/12/23 12:12:27;;;;;;;40.17;17.80;;;-0.60;99.90;;;;;;5123372;28;20143;-68
2021/12/23 12:14:55;;;;;;;36.70;17.17;;;-0.60;99.90;;;;;;5166561;27;20164;-68
2021/12/23 12:17:26;;;;;;;36.80;16.63;;;-0.50;99.90;;;;;;5180897;27;20186;-68
2021/12/23 12:20:23;;;;;;;36.90;17.23;;;-0.50;99.90;;;;;;5182432;27;20161;-68
2021/12/23 12:23:11;;;;;;;38.13;16.63;;;-0.60;99.90;;;;;;5198871;27;20198;-68
2021/12/23 12:25:42;;;;;;;37.83;16.70;;;-0.50;99.90;;;;;;5181259;27;20204;-69
2021/12/23 12:28:09;;;;;;;41.03;16.37;;;-0.50;99.90;;;;;;5182630;27;20195;-68
2021/12/23 12:30:43;;;;;;;35.77;16.67;;;-0.50;99.90;;;;;;5182275;27;20158;-68
2021/12/23 12:33:33;;;;;;;34.97;16.73;;;-0.50;99.90;;;;;;5181522;27;20151;-68
2021/12/23 12:36:01;;;;;;;37.30;16.27;;;-0.50;99.90;;;;;;5181721;27;20489;-68
2021/12/23 12:38:34;;;;;;;36.13;16.23;;;-0.40;99.90;;;;;;5182213;27;20181;-69
2021/12/23 12:41:16;;;;;;;37.17;17.03;;;-0.50;99.90;;;;;;5200797;27;20199;-68
2021/12/23 12:43:47;;;;;;;34.77;16.80;;;-0.60;99.90;;;;;;5201043;27;20381;-68
2021/12/23 12:46:40;;;;;;;37.37;16.23;;;-0.60;99.90;;;;;;5182071;27;20139;-68
2021/12/23 12:49:16;;;;;;;34.83;15.07;;;-0.60;99.90;;;;;;5138953;27;20148;-68
2021/12/23 12:51:46;;;;;;;34.10;15.73;;;-0.70;99.90;;;;;;5139467;27;20159;-68
2021/12/23 12:54:31;;;;;;;34.10;16.77;;;-0.60;99.90;;;;;;5138583;27;20242;-68
2021/12/23 12:57:23;;;;;;;35.83;15.83;;;-0.50;99.90;;;;;;5097326;28;20196;-68
2021/12/23 13:00:31;;;;;;;39.40;15.77;;;-0.40;99.90;;;;;;5095205;28;20393;-68
2021/12/23 13:03:23;;;;;;;34.77;15.27;;;-0.40;99.90;;;;;;5115054;28;20176;-68
2021/12/23 13:06:06;;;;;;;31.87;14.83;;;-0.40;99.90;;;;;;5115079;28;20177;-68
2021/12/23 13:08:39;;;;;;;34.87;15.13;;;-0.30;99.90;;;;;;5114898;28;20227;-68
2021/12/23 13:11:12;;;;;;;33.87;15.23;;;-0.30;99.90;;;;;;5115355;28;20140;-68
2021/12/23 13:13:45;;;;;;;36.03;14.93;;;-0.30;99.90;;;;;;5115007;28;20166;-68
2021/12/23 13:16:20;;;;;;;33.30;15.27;;;-0.30;99.90;;;;;;5115904;28;20436;-68
2021/12/23 13:19:17;;;;;;;32.73;14.70;;;-0.30;99.90;;;;;;5115633;28;20225;-68
2021/12/23 13:21:52;;;;;;;28.13;14.13;;;-0.30;99.90;;;;;;5115117;28;20149;-68
2021/12/23 13:24:30;;;;;;;32.77;14.77;;;-0.40;99.90;;;;;;5114949;28;20191;-68
2021/12/23 13:27:00;;;;;;;34.90;15.60;;;-0.50;99.90;;;;;;5148273;27;20147;-68
2021/12/23 13:29:32;;;;;;;29.97;14.60;;;-0.50;99.90;;;;;;5139190;27;20488;-68
2021/12/23 13:32:01;;;;;;;32.70;15.27;;;-0.50;99.90;;;;;;5139866;27;20231;-68
2021/12/23 13:34:33;;;;;;;31.33;14.47;;;-0.50;99.90;;;;;;5179313;27;20127;-68
2021/12/23 13:37:08;;;;;;;31.60;14.63;;;-0.50;99.90;;;;;;5198111;27;20148;-68
2021/12/23 13:39:41;;;;;;;31.20;15.13;;;-0.50;99.90;;;;;;5181306;27;20143;-68
2021/12/23 13:42:12;;;;;;;36.30;16.43;;;-0.50;99.90;;;;;;5178795;27;20159;-68
2021/12/23 13:44:51;;;;;;;37.43;16.00;;;-0.40;99.90;;;;;;5177133;27;20531;-68
2021/12/23 13:47:25;;;;;;;31.20;15.40;;;-0.50;99.90;;;;;;5196461;27;20188;-68
2021/12/23 13:50:06;;;;;;;34.77;15.67;;;-0.50;99.90;;;;;;5194469;27;20182;-68
2021/12/23 13:52:43;;;;;;;34.80;16.10;;;-0.50;99.90;;;;;;5193106;27;20375;-68
2021/12/23 13:55:22;;;;;;;34.43;15.40;;;-0.50;99.90;;;;;;5201912;27;20217;-68
2021/12/23 13:58:10;;;;;;;33.37;15.33;;;-0.70;99.90;;;;;;5198076;27;20144;-68
2021/12/23 14:00:37;;;;;;;38.43;16.80;;;-0.70;99.90;;;;;;5183058;27;20181;-68
2021/12/23 14:03:12;;;;;;;33.53;16.00;;;-0.70;99.90;;;;;;5202233;27;20111;-68
2021/12/23 14:05:42;;;;;;;33.67;16.00;;;-0.70;99.90;;;;;;5180334;27;20152;-69
2021/12/23 14:08:11;;;;;;;35.13;15.83;;;-0.80;99.90;;;;;;5201273;27;20120;-68
2021/12/23 14:10:41;;;;;;;35.97;15.83;;;-0.80;99.90;;;;;;5181113;27;20144;-68
2021/12/23 14:13:12;;;;;;;38.37;16.63;;;-0.90;99.90;;;;;;5181893;27;20181;-68
2021/12/23 14:15:47;;;;;;;39.37;15.53;;;-0.90;99.90;;;;;;5178087;27;20187;-68
2021/12/23 14:23:30;;;;;;;41.97;16.90;;;-1.00;99.90;;;;;;5181168;27;20166;-68
2021/12/23 14:26:18;;;;;;;40.80;17.57;;;-1.00;99.90;;;;;;5181173;27;20396;-68
2021/12/23 14:28:49;;;;;;;40.43;17.00;;;-1.10;99.90;;;;;;5180350;27;20141;-68
2021/12/23 14:31:17;;;;;;;37.60;17.23;;;-1.10;99.90;;;;;;5199313;27;20159;-68
2021/12/23 14:34:08;;;;;;;36.60;16.83;;;-1.10;99.90;;;;;;5182218;27;20194;-68
2021/12/23 14:36:50;;;;;;;38.70;16.70;;;-1.10;99.90;;;;;;5182430;27;20170;-68
2021/12/23 14:39:30;;;;;;;38.00;16.60;;;-1.20;99.90;;;;;;5180768;27;20414;-68
2021/12/23 14:42:20;;;;;;;39.60;17.30;;;-1.20;99.90;;;;;;5201195;27;20171;-68
2021/12/23 14:44:59;;;;;;;44.73;17.77;;;-1.30;99.90;;;;;;5158743;27;20193;-68
2021/12/23 14:47:30;;;;;;;43.17;17.97;;;-1.30;99.90;;;;;;5161968;27;20188;-68
2021/12/23 14:52:40;;;;;;;41.57;17.37;;;-1.40;99.90;;;;;;5179381;27;20150;-68
2021/12/23 14:55:13;;;;;;;40.33;17.73;;;-1.40;99.90;;;;;;5160609;27;20185;-68
2021/12/23 14:57:54;;;;;;;42.53;17.60;;;-1.40;99.90;;;;;;5161259;27;20158;-68
2021/12/23 15:00:27;;;;;;;39.63;17.87;;;-1.40;99.90;;;;;;5177742;27;20140;-69
2021/12/23 15:03:07;;;;;;;42.13;17.40;;;-1.50;99.90;;;;;;5159708;27;20181;-69
2021/12/23 15:05:39;;;;;;;37.83;17.17;;;-1.50;99.90;;;;;;5159883;27;20198;-69
2021/12/23 15:08:31;;;;;;;41.87;18.03;;;-1.50;99.90;;;;;;5160574;27;20147;-68
2021/12/23 15:11:09;;;;;;;39.67;17.53;;;-1.60;99.90;;;;;;5160096;27;20155;-68
2021/12/23 15:13:39;;;;;;;38.47;18.20;;;-1.50;99.90;;;;;;5179405;27;20151;-68
2021/12/23 15:16:17;;;;;;;45.10;18.73;;;-1.50;99.90;;;;;;5177638;27;20151;-68
2021/12/23 15:21:52;;;;;;;40.17;17.23;;;-1.50;99.90;;;;;;5161609;27;20172;-68
2021/12/23 15:24:24;;;;;;;40.10;17.57;;;-1.60;99.90;;;;;;5157774;27;20175;-68
2021/12/23 15:27:22;;;;;;;42.60;18.03;;;-1.60;99.90;;;;;;5156509;27;20140;-68
2021/12/23 15:29:54;;;;;;;37.93;17.03;;;-1.60;99.90;;;;;;5156682;27;20399;-68
2021/12/23 15:32:28;;;;;;;40.13;17.03;;;-1.60;99.90;;;;;;5156231;27;20153;-68
2021/12/23 15:35:09;;;;;;;39.57;17.67;;;-1.60;99.90;;;;;;5139196;27;20141;-68
2021/12/23 15:37:46;;;;;;;41.20;18.00;;;-1.60;99.90;;;;;;5140495;27;20412;-67